Terminal Aerodrome Forecast
Issued by NWS

Home | Current Version | Previous Version | Text Only | Print | Product List | Glossary On
Versions: 1 2 3 4 5 6 7 8 9 10 11 12 13 14 15 16 17 18 19
000
FTUS45 KABQ 231700
TAFLVS
TAF
KLVS 231737Z 2318/2418 20010G18KT P6SM SCT060 BKN100
     FM232100 20010G20KT P6SM VCSH SCT080
     FM240000 21012G23KT P6SM BKN080
     FM240200 17009KT P6SM SCT060
     FM240500 36005KT P6SM SCT040 SCT100=

USA.gov is the U.S. government's official web portal to all federal, state and local government web resources and services.